This is the latest recevied weather packets stored in our database for station/object LRSV. If no packets are shown the sender has not sent any weather packets the latest 10 day(s).
| Time | Temp. | Humidity | Pressure | Rain* | Wind** | Luminosity | Snow |
|---|---|---|---|---|---|---|---|
| 1777706300 | 8.89° C | 76% | 1024 hPa | - | - | - | - |
| 1777705401 | 8.89° C | 76% | 1024 hPa | - | - | - | - |
| 1777704500 | 7.22° C | 81% | 1024 hPa | - | - | - | - |
| 1777703600 | 7.22° C | 81% | 1024 hPa | - | - | - | - |
| 1777702700 | 6.11° C | 87% | 1024 hPa | - | - | - | - |
| 1777701800 | 6.11° C | 87% | 1024 hPa | - | - | - | - |
| 1777700900 | 6.11° C | 87% | 1023 hPa | - | - | - | - |
| 1777700001 | 6.11° C | 87% | 1023 hPa | - | - | - | - |
| 1777699100 | 6.11° C | 87% | 1023 hPa | - | - | - | - |
| 1777698200 | 6.11° C | 87% | 1023 hPa | - | - | - | - |
| 1777697300 | 6.11° C | 81% | 1023 hPa | - | - | - | - |
| 1777696400 | 6.11° C | 81% | 1023 hPa | - | - | - | - |
| 1777695500 | 6.11° C | 81% | 1023 hPa | - | - | - | - |
| 1777694600 | 6.11° C | 81% | 1023 hPa | - | - | - | - |
| 1777693777 | 6.11° C | 81% | 1023 hPa | - | - | - | - |
| 1777692800 | 6.11° C | 81% | 1023 hPa | - | - | - | - |
| 1777691900 | 7.22° C | 76% | 1023 hPa | - | - | - | - |
| 1777691000 | 7.22° C | 76% | 1023 hPa | - | - | - | - |
| 1777690100 | 7.22° C | 76% | 1023 hPa | - | - | - | - |
| 1777689200 | 7.22° C | 76% | 1023 hPa | - | - | - | - |
| 1777673900 | 7.22° C | 81% | 1024 hPa | - | - | - | - |
| 1777673000 | 7.22° C | 81% | 1024 hPa | - | - | - | - |
| 1777669400 | 7.78° C | 76% | 1024 hPa | - | - | - | - |
| 1777667600 | 7.22° C | 81% | 1024 hPa | - | - | - | - |
| 1777665800 | 7.78° C | 71% | 1024 hPa | - | - | - | - |
* Rain since midnight (hover to see other rain measurements)
** Current wind speed in m/s (hover to see current wind gust speed)